메인 페이지
METAR-TAF:

METAR-TAF

공항 :

Waco, 텍사스, 미국

위도: 31-37-02N, 경도: 097-13-40W, 고도: 157m

현재 날씨관측

예보는 40분 전, 13:51시(UTC)에 발표되었습니다.
7kt
온도 27°C
습도 79%
기압 1020 hPa
시정: 16.1km
고도 1200ft 상공 구름 조금
고도 2800ft 상공 구름 보통

METAR: KACT 201351Z 09007KT 10SM FEW012 SCT028 27/23 A3013 RMK AO2 SLP197 T02670233

시각: 09:31 (14:31 UTC)

예보

예보는 3 시간 11분 전, 11:20시(UTC)에 발표되었습니다.
예보 대상 시간: 20일 12시부터 21일 12시까지 (UTC)
동북동7kt
시정: 10km
고도 2400ft 상공 구름 많음
20일 1600시부터 (UTC)
8kt
시정: 10km
고도 3000ft 상공 구름 보통
고도 6000ft 상공 구름 많음
21일 0300시부터 (UTC)
남남동7kt
시정: 10km
고도 25000ft 상공 구름 많음

TAF: KACT 201120Z 2012/2112 07007KT P6SM BKN024 FM201600 09008KT P6SM SCT030 BKN060 FM210300 15007KT P6SM BKN250

4,000개 이상의 공항 관측 자료 및 예보 (METAR 및 TAF 보고).

지도상에서 검색 가능한 기상관측소가 노란 점과 빨간 점으로 표시되어 있습니다.

기상관측소 명을 보려면 표시 위로 마우스를 이동하세요.

날씨 관측과 예보를 보려면 클릭하세요.

지도 변경 : 확대하려면 엑스 표시가 있는 녹색 버튼, 축소하려면 빼기 표시가 있는 녹색 버튼, 다음 페이지의 지도를 보려면 녹색 화살표를 클릭하세요.


METAR-TAF: